Time;durP1;ratioP1;P1;durP2;ratioP2;P2;SDS_P1;SDS_P2;PMS_P1;PMS_P2;Temp;Humidity;BMP_temperature;BMP_pressure;BME280_temperature;BME280_humidity;BME280_pressure;Samples;Min_cycle;Max_cycle;Signal;HPM_P1;HPM_P2
2022/04/09 00:02:31;;;;;;;18.92;9.50;;;;;;;4.21;100.00;99168.42;1719665;82;21218;-76
2022/04/09 00:05:37;;;;;;;14.50;9.05;;;;;;;4.17;100.00;99172.97;1737466;82;21201;-75
2022/04/09 00:08:45;;;;;;;15.50;8.00;;;;;;;4.12;100.00;99177.52;1706417;84;21711;-77
2022/04/09 00:11:52;;;;;;;12.63;8.23;;;;;;;4.09;100.00;99173.77;1719538;83;21803;-77
2022/04/09 00:14:57;;;;;;;19.42;8.18;;;;;;;4.02;100.00;99170.87;1737916;82;21221;-77
2022/04/09 00:17:57;;;;;;;16.20;8.45;;;;;;;3.98;100.00;99171.36;1720042;83;22254;-77
2022/04/09 00:21:03;;;;;;;14.70;8.33;;;;;;;3.93;100.00;99173.71;1738754;82;21170;-83
2022/04/09 00:24:09;;;;;;;12.47;7.95;;;;;;;3.87;100.00;99186.03;1721107;83;21245;-83
2022/04/09 00:27:14;;;;;;;13.25;7.85;;;;;;;3.85;100.00;99179.91;1738364;82;21268;-83
2022/04/09 00:30:20;;;;;;;15.63;7.87;;;;;;;3.81;100.00;99187.53;1707897;84;21213;-83
2022/04/09 00:33:27;;;;;;;13.28;8.35;;;;;;;3.78;100.00;99190.55;1719985;83;21198;-83
2022/04/09 00:36:33;;;;;;;17.62;8.28;;;;;;;3.76;100.00;99199.81;1738965;82;21161;-83
2022/04/09 00:39:39;;;;;;;11.85;7.42;;;;;;;3.77;100.00;99200.17;1707875;84;21173;-83
2022/04/09 00:42:44;;;;;;;15.25;7.80;;;;;;;3.76;100.00;99202.00;1720618;83;21294;-83
2022/04/09 00:45:50;;;;;;;12.90;7.50;;;;;;;3.75;100.00;99198.97;1737850;82;21205;-78
2022/04/09 00:48:56;;;;;;;11.10;7.03;;;;;;;3.74;100.00;99208.09;1707856;84;21193;-81
2022/04/09 00:52:02;;;;;;;14.65;7.37;;;;;;;3.73;100.00;99206.41;1720846;83;21804;-81
2022/04/09 00:55:11;;;;;;;13.22;7.25;;;;;;;3.71;100.00;99216.52;1738223;82;21188;-81
2022/04/09 00:58:21;;;;;;;8.75;6.37;;;;;;;3.68;100.00;99220.06;1706792;84;21216;-82
2022/04/09 01:01:28;;;;;;;9.05;6.37;;;;;;;3.65;100.00;99218.52;1721090;83;21262;-76
2022/04/09 01:04:34;;;;;;;11.80;6.62;;;;;;;3.63;100.00;99228.66;1738621;82;21224;-77
2022/04/09 01:07:34;;;;;;;8.78;5.90;;;;;;;3.63;100.00;99226.45;1720534;83;21268;-77
2022/04/09 01:10:40;;;;;;;11.65;7.35;;;;;;;3.62;100.00;99230.98;1718402;82;21205;-77
2022/04/09 01:13:46;;;;;;;11.63;7.10;;;;;;;3.60;100.00;99234.36;1720992;83;21234;-77
2022/04/09 01:16:52;;;;;;;11.65;6.28;;;;;;;3.61;100.00;99245.52;1737169;82;21197;-77
2022/04/09 01:19:52;;;;;;;9.05;6.87;;;;;;;3.59;100.00;99251.61;1696312;83;21180;-77
2022/04/09 01:22:58;;;;;;;8.73;6.12;;;;;;;3.57;100.00;99245.48;1720121;83;21799;-77
2022/04/09 01:26:06;;;;;;;11.03;6.25;;;;;;;3.53;100.00;99238.22;1689413;85;21779;-77
2022/04/09 01:29:13;;;;;;;6.25;4.72;;;;;;;3.50;100.00;99245.78;1737393;82;21185;-77
2022/04/09 01:32:19;;;;;;;6.28;4.30;;;;;;;3.46;100.00;99252.51;1706754;83;21186;-77
2022/04/09 01:35:24;;;;;;;7.15;5.22;;;;;;;3.37;100.00;99257.50;1715504;83;21222;-77
2022/04/09 01:38:30;;;;;;;7.55;5.22;;;;;;;3.26;100.00;99263.50;1715655;83;21222;-76
2022/04/09 01:41:37;;;;;;;6.37;4.75;;;;;;;3.14;100.00;99269.28;1686612;85;21871;-76
2022/04/09 01:44:44;;;;;;;9.98;5.47;;;;;;;3.04;100.00;99274.76;1716842;83;21775;-77
2022/04/09 01:47:49;;;;;;;6.10;4.12;;;;;;;2.96;100.00;99266.56;1686488;85;21210;-76
2022/04/09 01:50:55;;;;;;;6.65;5.00;;;;;;;2.91;100.00;99254.02;1717080;83;21779;-82
2022/04/09 01:54:01;;;;;;;7.70;5.67;;;;;;;2.83;100.00;99256.66;1686855;85;21230;-82
2022/04/09 01:57:07;;;;;;;10.35;5.28;;;;;;;2.77;100.00;99253.53;1715843;83;21815;-82
2022/04/09 02:00:17;;;;;;;7.62;5.20;;;;;;;2.72;100.00;99255.84;1686837;85;21210;-82
2022/04/09 02:03:22;;;;;;;9.13;5.70;;;;;;;2.67;100.00;99263.55;1716474;83;21720;-82
2022/04/09 02:06:29;;;;;;;9.23;5.90;;;;;;;2.61;100.00;99265.52;1686214;85;21198;-83
2022/04/09 02:09:35;;;;;;;11.70;6.28;;;;;;;2.59;100.00;99264.83;1717069;83;21179;-82
2022/04/09 02:12:41;;;;;;;8.78;6.37;;;;;;;2.59;100.00;99265.30;1685641;85;21231;-82
2022/04/09 02:15:49;;;;;;;8.83;6.17;;;;;;;2.56;100.00;99270.52;1715841;83;21163;-81
2022/04/09 02:18:55;;;;;;;10.30;6.83;;;;;;;2.55;100.00;99277.77;1685727;84;21242;-82
2022/04/09 02:22:02;;;;;;;8.75;5.67;;;;;;;2.53;100.00;99274.86;1716730;83;21218;-82
2022/04/09 02:25:10;;;;;;;8.55;6.12;;;;;;;2.50;100.00;99273.83;1685504;85;21203;-82
2022/04/09 02:28:16;;;;;;;4.83;4.28;;;;;;;2.46;100.00;99275.13;1715980;83;21242;-82
2022/04/09 02:31:22;;;;;;;5.20;4.70;;;;;;;2.46;100.00;99285.92;1686844;85;21804;-83
2022/04/09 02:34:28;;;;;;;5.80;3.98;;;;;;;2.46;100.00;99294.02;1715836;83;21751;-83
2022/04/09 02:37:34;;;;;;;6.05;4.47;;;;;;;2.44;100.00;99298.20;1685832;85;21206;-83
2022/04/09 02:40:39;;;;;;;8.98;3.70;;;;;;;2.39;100.00;99288.85;1716968;83;21182;-82
2022/04/09 02:43:46;;;;;;;4.58;3.80;;;;;;;2.33;100.00;99300.25;1686838;85;21173;-83
2022/04/09 02:46:53;;;;;;;4.55;3.70;;;;;;;2.29;100.00;99302.39;1716372;83;21187;-83
2022/04/09 02:49:59;;;;;;;4.67;3.87;;;;;;;2.26;100.00;99302.70;1686820;85;21780;-83
2022/04/09 02:53:04;;;;;;;5.40;3.75;;;;;;;2.21;100.00;99296.41;1717144;83;21243;-83
2022/04/09 02:56:11;;;;;;;6.60;4.20;;;;;;;2.17;100.00;99300.89;1687071;85;21713;-83
2022/04/09 02:59:17;;;;;;;6.72;3.80;;;;;;;2.16;100.00;99305.91;1717301;83;21218;-82
2022/04/09 03:02:24;;;;;;;5.92;3.47;;;;;;;2.15;100.00;99313.66;1687022;85;21238;-83
2022/04/09 03:05:29;;;;;;;10.15;3.92;;;;;;;2.13;100.00;99313.81;1717293;83;21221;-83
2022/04/09 03:08:35;;;;;;;5.03;3.50;;;;;;;2.10;100.00;99310.55;1685553;84;21230;-83
2022/04/09 03:11:41;;;;;;;6.92;3.58;;;;;;;2.07;100.00;99317.11;1716993;83;21198;-83
2022/04/09 03:14:53;;;;;;;5.53;2.98;;;;;;;2.05;100.00;99313.19;1685617;85;21274;-75
2022/04/09 03:17:59;;;;;;;3.75;3.35;;;;;;;2.07;100.00;99325.20;1716180;83;21289;-76
2022/04/09 03:21:05;;;;;;;4.08;3.67;;;;;;;2.12;100.00;99332.83;1686806;85;21268;-75
2022/04/09 03:24:11;;;;;;;5.65;3.75;;;;;;;2.19;100.00;99332.11;1715923;83;21194;-77
2022/04/09 03:27:16;;;;;;;3.20;2.90;;;;;;;2.24;100.00;99324.42;1686343;85;21783;-77
2022/04/09 03:30:23;;;;;;;3.75;2.75;;;;;;;2.32;100.00;99333.64;1716984;83;21178;-76
2022/04/09 03:33:31;;;;;;;3.50;2.30;;;;;;;2.41;100.00;99333.60;1685458;85;21760;-77
2022/04/09 03:36:39;;;;;;;3.08;2.77;;;;;;;2.49;100.00;99339.59;1712549;83;21222;-77
2022/04/09 03:39:45;;;;;;;2.72;2.50;;;;;;;2.51;100.00;99322.77;1736727;82;21778;-77
2022/04/09 03:42:51;;;;;;;22.62;3.33;;;;;;;2.48;100.00;99329.80;1735370;82;21212;-77
2022/04/09 03:45:57;;;;;;;58.20;3.55;;;;;;;2.41;100.00;99337.66;1735124;82;21751;-77
2022/04/09 03:49:03;;;;;;;3.12;2.83;;;;;;;2.33;100.00;99337.53;1736641;82;21181;-77
2022/04/09 03:52:10;;;;;;;4.55;3.50;;;;;;;2.34;100.00;99332.98;1736288;82;21723;-77
2022/04/09 03:55:09;;;;;;;4.58;2.83;;;;;;;2.41;100.00;99330.06;1735335;82;21201;-77
2022/04/09 03:58:16;;;;;;;11.05;2.72;;;;;;;2.52;100.00;99336.61;1735548;82;21244;-76
2022/04/09 04:01:24;;;;;;;20.17;3.08;;;;;;;2.62;100.00;99340.11;1735335;82;21233;-76
2022/04/09 04:04:32;;;;;;;11.00;3.30;;;;;;;2.69;100.00;99337.17;1736874;82;22158;-81
2022/04/09 04:07:41;;;;;;;30.27;3.50;;;;;;;2.74;100.00;99338.92;1736868;82;21205;-76
2022/04/09 04:10:47;;;;;;;4.17;2.83;;;;;;;2.83;100.00;99338.53;1736969;82;21142;-82
2022/04/09 04:13:55;;;;;;;8.05;3.35;;;;;;;2.96;100.00;99338.14;1736797;82;21240;-81
2022/04/09 04:17:01;;;;;;;4.40;3.20;;;;;;;3.10;100.00;99338.98;1736302;82;21248;-76
2022/04/09 04:20:09;;;;;;;3.17;2.72;;;;;;;3.25;100.00;99340.18;1735301;82;21256;-76
2022/04/09 04:23:15;;;;;;;3.35;3.02;;;;;;;3.49;100.00;99349.54;1735232;82;21208;-77
2022/04/09 04:26:22;;;;;;;3.62;3.25;;;;;;;3.71;100.00;99344.98;1736733;82;21173;-77
2022/04/09 04:29:31;;;;;;;3.42;3.12;;;;;;;3.89;100.00;99347.67;1735510;82;21738;-76
2022/04/09 04:32:37;;;;;;;3.30;2.85;;;;;;;4.09;100.00;99352.38;1736676;82;21209;-76
2022/04/09 04:35:45;;;;;;;3.30;2.55;;;;;;;4.29;100.00;99355.25;1736219;82;21193;-76
2022/04/09 04:38:54;;;;;;;3.20;2.87;;;;;;;4.55;100.00;99353.02;1720847;83;21179;-76
2022/04/09 04:41:58;;;;;;;6.45;3.20;;;;;;;4.82;100.00;99355.53;1738522;82;21217;-76
2022/04/09 04:45:05;;;;;;;5.50;4.25;;;;;;;5.05;100.00;99352.23;1719729;83;21222;-77
2022/04/09 04:48:13;;;;;;;7.83;5.65;;;;;;;5.24;100.00;99353.30;1737548;82;21205;-77
2022/04/09 04:51:21;;;;;;;8.35;4.80;;;;;;;5.48;100.00;99360.64;1720227;83;21222;-77
2022/04/09 04:54:26;;;;;;;8.00;6.15;;;;;;;5.75;100.00;99351.36;1738694;82;21162;-77
2022/04/09 04:57:25;;;;;;;9.93;6.10;;;;;;;6.02;100.00;99349.34;1706644;84;21237;-77
2022/04/09 05:00:33;;;;;;;8.20;6.80;;;;;;;6.26;100.00;99343.91;1721207;83;21163;-77
2022/04/09 05:03:40;;;;;;;10.00;5.60;;;;;;;6.53;100.00;99341.80;1721330;83;21258;-77
2022/04/09 05:06:48;;;;;;;10.70;6.22;;;;;;;6.78;100.00;99337.16;1691641;83;21214;-77
2022/04/09 05:09:54;;;;;;;11.05;6.10;;;;;;;7.04;100.00;99335.50;1737660;82;21206;-77
2022/04/09 05:13:01;;;;;;;9.33;6.05;;;;;;;7.29;100.00;99333.00;1719805;83;21254;-77
2022/04/09 05:16:07;;;;;;;9.03;5.25;;;;;;;7.56;100.00;99328.05;1691308;85;21202;-77
2022/04/09 05:19:16;;;;;;;12.53;5.47;;;;;;;7.84;100.00;99324.27;1720349;83;21206;-77
2022/04/09 05:22:28;;;;;;;8.18;5.35;;;;;;;8.12;100.00;99323.17;1737576;82;21176;-77
2022/04/09 05:25:35;;;;;;;5.40;3.77;;;;;;;8.42;100.00;99326.81;1721368;83;21166;-77
2022/04/09 05:28:42;;;;;;;5.55;4.12;;;;;;;8.70;100.00;99318.34;1689502;85;21214;-78
2022/04/09 05:31:50;;;;;;;7.03;3.92;;;;;;;8.95;100.00;99324.86;1720949;83;21752;-77
2022/04/09 05:34:57;;;;;;;4.70;3.75;;;;;;;9.21;100.00;99323.80;1715103;82;21221;-77
2022/04/09 05:38:03;;;;;;;6.85;3.60;;;;;;;9.50;100.00;99319.83;1705908;83;21190;-77
2022/04/09 05:41:12;;;;;;;5.42;3.12;;;;;;;9.76;100.00;99316.53;1714132;84;21772;-77
2022/04/09 05:44:17;;;;;;;7.65;3.00;;;;;;;9.97;96.28;99304.22;1713919;84;21724;-77
2022/04/09 05:47:26;;;;;;;6.00;3.75;;;;;;;10.17;92.58;99305.77;1736149;82;21770;-76
2022/04/09 05:50:32;;;;;;;6.97;3.37;;;;;;;10.28;90.78;99305.25;1735294;82;21162;-78
2022/04/09 05:53:40;;;;;;;7.85;4.80;;;;;;;10.33;87.63;99306.02;1735303;82;21232;-78
2022/04/09 05:56:46;;;;;;;7.72;5.20;;;;;;;10.40;88.59;99302.30;1736538;82;21236;-78
2022/04/09 05:59:54;;;;;;;10.38;5.65;;;;;;;10.46;88.19;99301.50;1735278;82;21166;-78
2022/04/09 06:03:05;;;;;;;10.63;5.42;;;;;;;10.45;87.70;99306.65;1735711;82;21216;-78
2022/04/09 06:06:11;;;;;;;8.50;5.00;;;;;;;10.48;87.82;99315.80;1736480;82;21208;-78
2022/04/09 06:09:27;;;;;;;10.75;5.78;;;;;;;10.57;88.21;99304.19;1736376;82;21213;-78
2022/04/09 06:12:28;;;;;;;9.33;5.25;;;;;;;10.72;87.82;99323.20;1736586;82;21181;-78
2022/04/09 06:15:38;;;;;;;13.95;5.28;;;;;;;10.93;87.43;99319.02;1736956;82;21212;-78
2022/04/09 06:18:47;;;;;;;8.40;5.03;;;;;;;11.15;84.76;99323.88;1736676;82;21169;-78
2022/04/09 06:21:53;;;;;;;9.05;6.25;;;;;;;11.35;80.06;99323.94;1736495;82;21174;-78
2022/04/09 06:25:01;;;;;;;17.48;8.00;;;;;;;11.51;77.87;99319.98;1736624;82;21880;-78
2022/04/09 06:28:08;;;;;;;16.27;9.45;;;;;;;11.67;76.70;99322.88;1735226;82;21802;-78
2022/04/09 06:31:03;;;;;;;15.15;8.95;;;;;;;11.80;77.28;99318.77;1735478;82;21224;-78
2022/04/09 06:34:09;;;;;;;14.53;8.53;;;;;;;11.98;76.65;99323.16;1735297;82;21182;-77
2022/04/09 06:37:15;;;;;;;13.55;6.97;;;;;;;12.15;75.94;99336.47;1736382;82;21181;-77
2022/04/09 06:40:20;;;;;;;5.80;3.00;;;;;;;12.29;72.58;99335.41;1735968;82;21197;-77
2022/04/09 06:43:30;;;;;;;5.65;2.55;;;;;;;12.45;68.46;99339.62;1735420;82;21204;-77
2022/04/09 06:46:43;;;;;;;5.62;2.90;;;;;;;12.61;65.25;99343.81;1736577;82;21249;-77
2022/04/09 06:49:57;;;;;;;8.15;3.77;;;;;;;12.76;65.09;99354.89;1736748;82;21236;-77
2022/04/09 06:53:03;;;;;;;7.58;2.72;;;;;;;12.92;66.34;99350.83;1736516;82;21787;-77
2022/04/09 06:56:10;;;;;;;5.95;2.65;;;;;;;13.07;64.49;99354.70;1735211;82;21224;-77
2022/04/09 06:59:15;;;;;;;6.33;2.98;;;;;;;13.17;62.60;99351.49;1735236;82;21228;-77
2022/04/09 07:02:21;;;;;;;5.97;2.95;;;;;;;13.27;61.65;99364.30;1736260;82;21204;-77
2022/04/09 07:05:29;;;;;;;9.30;3.10;;;;;;;13.36;61.64;99365.74;1736620;82;21173;-77
2022/04/09 07:08:37;;;;;;;7.62;3.60;;;;;;;13.49;61.69;99378.56;1735934;82;21185;-77
2022/04/09 07:11:43;;;;;;;14.73;4.20;;;;;;;13.63;59.72;99380.72;1735238;82;21185;-77
2022/04/09 07:14:50;;;;;;;9.15;4.62;;;;;;;13.70;58.10;99378.80;1735427;82;21769;-77
2022/04/09 07:17:56;;;;;;;9.48;4.05;;;;;;;13.71;58.70;99385.97;1735730;82;21212;-78
2022/04/09 07:21:02;;;;;;;15.70;4.00;;;;;;;13.72;60.16;99380.25;1735252;82;21806;-78
2022/04/09 07:24:08;;;;;;;7.45;3.75;;;;;;;13.79;61.02;99374.20;1735609;82;21201;-77
2022/04/09 07:27:16;;;;;;;7.95;3.65;;;;;;;13.86;61.26;99382.93;1735302;82;21801;-77
2022/04/09 07:30:26;;;;;;;6.87;3.40;;;;;;;13.96;61.43;99374.50;1735186;82;21209;-77
2022/04/09 07:33:32;;;;;;;6.08;2.42;;;;;;;14.11;59.30;99382.98;1735584;82;21794;-82
2022/04/09 07:36:38;;;;;;;4.87;2.25;;;;;;;14.26;55.83;99380.24;1736705;82;21192;-83
2022/04/09 07:39:45;;;;;;;4.65;2.47;;;;;;;14.39;53.78;99362.77;1735456;82;21751;-78
2022/04/09 07:42:53;;;;;;;4.70;1.95;;;;;;;14.46;51.50;99344.85;1720250;83;21278;-78
2022/04/09 07:45:59;;;;;;;6.00;1.77;;;;;;;14.46;50.83;99344.85;1689492;85;21202;-78
2022/04/09 07:49:04;;;;;;;5.00;1.95;;;;;;;14.51;50.82;99340.38;1738700;82;21174;-78
2022/04/09 07:52:11;;;;;;;2.75;1.67;;;;;;;14.64;52.14;99335.30;1719780;83;21194;-77
2022/04/09 07:55:18;;;;;;;4.25;2.12;;;;;;;14.74;51.34;99345.25;1690599;85;21843;-77
2022/04/09 07:58:25;;;;;;;4.00;1.95;;;;;;;14.87;51.36;99337.41;1721081;83;21222;-77
2022/04/09 08:01:31;;;;;;;5.58;1.67;;;;;;;14.95;49.58;99334.87;1738922;82;21150;-77
2022/04/09 08:04:36;;;;;;;3.77;1.55;;;;;;;15.00;48.71;99328.97;1721128;83;21756;-77
2022/04/09 08:07:42;;;;;;;1.80;1.20;;;;;;;15.00;48.18;99315.74;1737551;82;21196;-77
2022/04/09 08:10:48;;;;;;;3.30;1.60;;;;;;;14.95;46.89;99321.94;1707657;84;21213;-77
2022/04/09 08:13:54;;;;;;;5.17;1.40;;;;;;;14.85;47.18;99329.89;1720998;83;21229;-78
2022/04/09 08:17:00;;;;;;;3.02;1.20;;;;;;;14.81;46.06;99327.28;1738501;82;21209;-78
2022/04/09 08:20:05;;;;;;;2.98;1.30;;;;;;;14.82;46.16;99327.61;1719857;83;21182;-77
2022/04/09 08:23:12;;;;;;;2.77;1.32;;;;;;;14.91;47.48;99334.47;1738908;82;21209;-77
2022/04/09 08:26:20;;;;;;;3.12;1.80;;;;;;;15.03;45.95;99330.44;1721111;83;21221;-77
2022/04/09 08:29:25;;;;;;;6.03;2.02;;;;;;;15.16;46.42;99339.09;1738796;82;21149;-77
2022/04/09 08:32:31;;;;;;;9.60;2.37;;;;;;;15.25;46.51;99341.85;1719921;83;21198;-78
2022/04/09 08:35:36;;;;;;;9.28;2.30;;;;;;;15.29;47.11;99345.80;1738604;82;21149;-78
2022/04/09 08:38:43;;;;;;;6.60;2.35;;;;;;;15.40;46.83;99355.23;1693637;83;21182;-77
2022/04/09 08:41:48;;;;;;;3.87;1.80;;;;;;;15.59;46.03;99352.22;1705051;83;21192;-77
2022/04/09 08:44:56;;;;;;;8.80;2.35;;;;;;;15.71;45.14;99345.39;1707208;84;21162;-78
2022/04/09 08:48:02;;;;;;;5.08;1.57;;;;;;;15.75;43.31;99357.64;1706846;84;21225;-78
2022/04/09 08:51:07;;;;;;;6.75;2.22;;;;;;;15.80;44.46;99354.19;1706827;84;21727;-77
2022/04/09 08:54:15;;;;;;;7.45;2.17;;;;;;;15.82;45.01;99355.66;1706758;84;21786;-77
2022/04/09 08:57:21;;;;;;;7.50;2.12;;;;;;;15.82;46.88;99353.44;1706791;84;21200;-77
2022/04/09 09:00:26;;;;;;;7.25;2.30;;;;;;;15.87;46.21;99344.46;1692328;84;21181;-78
2022/04/09 09:03:35;;;;;;;4.92;1.87;;;;;;;15.99;46.47;99337.89;1706759;84;21173;-77
2022/04/09 09:06:45;;;;;;;9.68;2.77;;;;;;;16.23;45.35;99329.67;1706699;84;21205;-77
2022/04/09 09:09:54;;;;;;;6.17;2.42;;;;;;;16.47;45.39;99314.02;1705727;84;21201;-77
2022/04/09 09:13:14;;;;;;;7.75;2.15;;;;;;;16.67;44.57;99312.28;1705616;84;21727;-77
2022/04/09 09:16:21;;;;;;;6.72;2.02;;;;;;;16.75;43.05;99307.27;1706463;84;21169;-77
2022/04/09 09:19:26;;;;;;;8.33;2.52;;;;;;;16.77;41.63;99310.62;1706889;84;21177;-77
2022/04/09 09:22:48;;;;;;;5.90;2.52;;;;;;;16.76;42.86;99302.59;1706598;84;21225;-77
2022/04/09 09:25:58;;;;;;;4.12;1.70;;;;;;;16.70;43.67;99302.98;1706752;84;21205;-77
2022/04/09 09:29:04;;;;;;;4.35;1.72;;;;;;;16.73;43.45;99298.91;1707407;84;21240;-77
2022/04/09 09:32:13;;;;;;;6.28;1.85;;;;;;;16.76;42.74;99299.28;1707425;84;21205;-77
2022/04/09 09:35:25;;;;;;;7.00;2.40;;;;;;;16.77;43.30;99294.05;1707548;84;21270;-77
2022/04/09 09:38:43;;;;;;;6.65;2.65;;;;;;;16.73;42.48;99279.05;1707524;84;21209;-77
2022/04/09 09:41:56;;;;;;;7.20;3.02;;;;;;;16.68;43.34;99287.18;1707027;83;21193;-77
2022/04/09 09:45:19;;;;;;;5.22;2.55;;;;;;;16.73;42.83;99278.20;1663031;86;21777;-77
2022/04/09 09:48:47;;;;;;;5.33;1.98;;;;;;;16.77;42.63;99292.67;1709577;84;21699;-77
2022/04/09 09:52:16;;;;;;;4.85;2.15;;;;;;;16.81;41.94;99288.89;1663016;86;21238;-77
2022/04/09 09:55:24;;;;;;;8.35;2.60;;;;;;;16.82;42.18;99287.80;1709446;84;21213;-78
2022/04/09 09:58:30;;;;;;;6.28;2.50;;;;;;;16.96;42.71;99282.86;1663052;86;21206;-77
2022/04/09 10:01:51;;;;;;;7.58;3.00;;;;;;;17.15;42.69;99280.78;1709461;84;21761;-77
2022/04/09 10:05:00;;;;;;;11.40;2.50;;;;;;;17.28;42.70;99276.37;1663107;86;22102;-77
2022/04/09 10:08:06;;;;;;;16.97;3.40;;;;;;;17.33;41.16;99270.94;1709316;84;21774;-77
2022/04/09 10:11:12;;;;;;;9.03;3.45;;;;;;;17.25;42.26;99265.25;1644010;86;21283;-77
2022/04/09 10:14:18;;;;;;;8.53;2.90;;;;;;;17.22;43.62;99260.74;1708039;84;21200;-77
2022/04/09 10:17:26;;;;;;;6.90;2.83;;;;;;;17.26;43.98;99264.16;1663119;86;21242;-78
2022/04/09 10:20:33;;;;;;;8.48;2.65;;;;;;;17.41;43.62;99257.25;1709503;84;21157;-78
2022/04/09 10:23:41;;;;;;;6.17;2.62;;;;;;;17.56;44.86;99251.50;1662978;86;21843;-77
2022/04/09 10:26:46;;;;;;;5.87;2.90;;;;;;;17.80;44.59;99247.26;1690483;84;21176;-77
2022/04/09 10:29:56;;;;;;;9.03;2.87;;;;;;;17.90;42.56;99236.38;1663106;86;21245;-77
2022/04/09 10:33:02;;;;;;;8.08;3.35;;;;;;;17.89;43.49;99230.55;1709369;84;21204;-77
2022/04/09 10:36:07;;;;;;;7.75;3.50;;;;;;;17.91;44.00;99227.52;1662927;86;21247;-77
2022/04/09 10:39:48;;;;;;;8.03;2.90;;;;;;;17.97;44.44;99230.11;1709309;84;21213;-78
2022/04/09 10:42:55;;;;;;;7.92;3.83;;;;;;;18.06;43.30;99216.70;1659187;86;21259;-77
2022/04/09 10:46:21;;;;;;;9.28;3.42;;;;;;;18.11;44.35;99221.80;1719798;83;21177;-83
2022/04/09 10:49:25;;;;;;;4.87;2.58;;;;;;;18.16;43.67;99207.73;1719908;83;21176;-83
2022/04/09 10:52:31;;;;;;;11.97;3.92;;;;;;;18.08;44.38;99202.92;1720036;83;21782;-83
2022/04/09 10:55:36;;;;;;;7.53;3.25;;;;;;;18.03;44.63;99201.47;1704393;83;21714;-83
2022/04/09 10:59:22;;;;;;;10.18;3.30;;;;;;;18.06;45.69;99195.95;1720021;83;21188;-77
2022/04/09 11:02:27;;;;;;;5.20;3.20;;;;;;;18.13;45.23;99197.47;1718334;83;21793;-77
2022/04/09 11:05:33;;;;;;;13.03;3.67;;;;;;;18.12;45.97;99201.34;1719797;83;21177;-77
2022/04/09 11:08:40;;;;;;;9.45;4.20;;;;;;;18.19;45.82;99197.00;1718490;83;21264;-77
2022/04/09 11:11:47;;;;;;;14.80;4.05;;;;;;;18.27;46.79;99180.52;1718366;83;21785;-77
2022/04/09 11:15:09;;;;;;;9.43;3.85;;;;;;;18.33;46.40;99170.64;1718440;83;21224;-77
2022/04/09 11:18:15;;;;;;;9.85;3.52;;;;;;;18.33;46.86;99175.34;1718494;83;21220;-77
2022/04/09 11:21:21;;;;;;;9.85;3.95;;;;;;;18.32;46.81;99166.20;1719912;83;21718;-77
2022/04/09 11:24:27;;;;;;;9.60;4.12;;;;;;;18.26;47.94;99173.32;1719936;83;21204;-78
2022/04/09 11:27:36;;;;;;;13.50;4.87;;;;;;;18.17;48.39;99156.84;1719774;83;21185;-78
2022/04/09 11:30:42;;;;;;;17.60;4.90;;;;;;;18.10;49.52;99159.23;1719886;83;21153;-77
2022/04/09 11:33:52;;;;;;;13.22;4.95;;;;;;;18.09;50.08;99158.94;1719897;83;21240;-77
2022/04/09 11:36:58;;;;;;;10.82;4.92;;;;;;;18.15;50.78;99158.47;1719864;83;21782;-77
2022/04/09 11:40:07;;;;;;;16.35;5.10;;;;;;;18.25;50.64;99163.31;1719933;83;21221;-77
2022/04/09 11:43:13;;;;;;;10.90;5.67;;;;;;;18.37;51.52;99158.52;1719339;82;21177;-78
2022/04/09 11:46:19;;;;;;;14.75;5.00;;;;;;;18.51;51.10;99159.83;1717130;82;21746;-77
2022/04/09 11:49:24;;;;;;;9.73;5.10;;;;;;;18.59;51.18;99148.31;1716474;83;21188;-77
2022/04/09 11:52:36;;;;;;;11.43;5.15;;;;;;;18.61;50.99;99148.05;1716493;83;21264;-77
2022/04/09 11:55:44;;;;;;;14.10;4.72;;;;;;;18.67;51.20;99148.95;1716564;83;21734;-77
2022/04/09 11:58:51;;;;;;;11.68;5.25;;;;;;;18.76;51.57;99146.05;1716367;83;21216;-77
2022/04/09 12:01:56;;;;;;;11.65;5.33;;;;;;;18.85;52.05;99146.72;1716602;83;21785;-77
2022/04/09 12:05:04;;;;;;;12.63;6.12;;;;;;;18.85;51.43;99146.72;1716572;82;21229;-78
2022/04/09 12:08:14;;;;;;;10.80;5.03;;;;;;;18.81;51.62;99135.86;1746760;82;21232;-77
2022/04/09 12:11:20;;;;;;;15.32;6.05;;;;;;;18.82;53.21;99137.56;1746696;82;21134;-77
2022/04/09 12:14:26;;;;;;;9.80;4.85;;;;;;;18.87;52.81;99118.78;1746751;82;21772;-77
2022/04/09 12:17:43;;;;;;;13.70;5.03;;;;;;;18.86;52.37;99114.31;1746783;82;21231;-77
2022/04/09 12:20:49;;;;;;;12.13;5.20;;;;;;;18.78;52.29;99117.02;1745452;82;21709;-75
2022/04/09 12:24:11;;;;;;;11.10;5.22;;;;;;;18.67;52.90;99114.33;1746804;82;21162;-76
2022/04/09 12:27:18;;;;;;;8.90;4.80;;;;;;;18.68;53.67;99102.15;1729080;82;21184;-79
2022/04/09 12:30:17;;;;;;;12.23;5.50;;;;;;;18.80;53.25;99090.42;1746726;82;21149;-77
2022/04/09 12:33:23;;;;;;;9.58;4.72;;;;;;;18.94;53.72;99070.91;1745610;82;21240;-77
2022/04/09 12:36:29;;;;;;;13.05;4.67;;;;;;;19.08;52.10;99073.55;1745236;82;21172;-78
2022/04/09 12:39:37;;;;;;;10.65;4.12;;;;;;;19.17;53.21;99064.22;1745273;82;21184;-77
2022/04/09 12:42:42;;;;;;;16.02;4.00;;;;;;;19.30;52.00;99069.34;1745793;82;21209;-77
2022/04/09 12:45:49;;;;;;;8.18;3.90;;;;;;;19.42;50.75;99062.22;1747425;82;21247;-77
2022/04/09 12:48:57;;;;;;;10.03;3.72;;;;;;;19.48;50.50;99054.25;1748112;82;21749;-77
2022/04/09 12:52:04;;;;;;;7.58;3.52;;;;;;;19.51;49.96;99043.16;1749562;82;21662;-78
2022/04/09 12:55:10;;;;;;;6.83;3.17;;;;;;;19.52;49.70;99053.98;1749595;82;21192;-77
2022/04/09 12:58:15;;;;;;;5.67;3.02;;;;;;;19.58;49.56;99050.72;1749647;82;21177;-77
2022/04/09 13:01:17;;;;;;;;;;;;;;;19.64;49.89;99046.34;1752276;82;21205;-77
2022/04/09 13:04:22;;;;;;;7.40;3.30;;;;;;;19.76;49.46;99036.46;1749643;82;20589;-77
2022/04/09 13:07:21;;;;;;;;;;;;;;;19.80;49.17;99028.41;1752158;82;21208;-77
2022/04/09 13:10:26;;;;;;;9.58;3.50;;;;;;;19.83;49.06;99030.66;1749626;82;20200;-77
2022/04/09 13:13:31;;;;;;;5.30;2.60;;;;;;;19.84;48.95;99028.17;1749510;82;21741;-77
2022/04/09 13:16:37;;;;;;;5.17;2.60;;;;;;;19.94;48.39;99021.29;1749442;82;21164;-77
2022/04/09 13:19:43;;;;;;;7.53;2.47;;;;;;;20.02;47.15;99013.84;1748365;82;21172;-77
2022/04/09 13:22:50;;;;;;;5.15;2.72;;;;;;;20.14;46.54;99008.92;1749518;82;21192;-77
2022/04/09 13:25:57;;;;;;;7.12;2.20;;;;;;;20.23;45.75;99012.55;1749613;82;21169;-77
2022/04/09 13:29:04;;;;;;;8.70;3.42;;;;;;;20.29;45.98;99005.38;1749597;81;21665;-77
2022/04/09 13:32:12;;;;;;;7.83;3.00;;;;;;;20.35;47.16;99003.45;1749516;82;21203;-77
2022/04/09 13:35:19;;;;;;;8.40;3.33;;;;;;;20.30;47.74;99004.27;1749790;82;21153;-77
2022/04/09 13:38:24;;;;;;;7.37;3.30;;;;;;;20.17;47.59;99022.80;1749823;82;21681;-78
2022/04/09 13:41:29;;;;;;;7.08;3.42;;;;;;;19.95;48.31;99014.66;1749713;82;21148;-77
2022/04/09 13:44:34;;;;;;;8.43;3.77;;;;;;;19.78;48.75;99013.99;1729557;82;21777;-77
2022/04/09 13:47:39;;;;;;;7.78;3.22;;;;;;;19.62;49.35;99013.06;1749606;82;21176;-77
2022/04/09 13:50:45;;;;;;;5.37;2.92;;;;;;;19.53;49.44;99019.63;1749753;82;21761;-77
2022/04/09 13:53:51;;;;;;;8.80;3.15;;;;;;;19.47;49.75;99030.92;1749827;82;21161;-77
2022/04/09 13:56:57;;;;;;;8.98;3.47;;;;;;;19.39;50.33;99029.50;1749325;82;21726;-77
2022/04/09 14:00:06;;;;;;;14.87;3.52;;;;;;;19.29;50.72;99030.25;1749544;82;21236;-77
2022/04/09 14:03:06;;;;;;;6.72;3.75;;;;;;;19.21;51.39;99021.58;1748266;82;21207;-77
2022/04/09 14:06:13;;;;;;;10.23;4.20;;;;;;;19.10;51.90;99017.85;1749175;82;21173;-78
2022/04/09 14:09:19;;;;;;;14.98;4.70;;;;;;;19.04;52.19;99024.45;1749565;82;21176;-77
2022/04/09 14:12:25;;;;;;;7.80;4.20;;;;;;;19.03;52.14;99022.23;1748127;82;21231;-77
2022/04/09 14:15:30;;;;;;;11.00;3.77;;;;;;;19.03;52.21;99027.78;1748791;82;21212;-77
2022/04/09 14:18:36;;;;;;;8.30;4.22;;;;;;;19.04;52.55;99026.67;1748118;82;21801;-77
2022/04/09 14:21:42;;;;;;;11.85;4.42;;;;;;;19.01;52.60;99014.75;1749650;82;21188;-76
2022/04/09 14:24:49;;;;;;;14.83;5.05;;;;;;;18.97;53.30;99021.91;1751035;82;21165;-82
2022/04/09 14:27:57;;;;;;;10.70;4.35;;;;;;;18.88;53.40;99024.31;1749379;81;21782;-78
2022/04/09 14:31:02;;;;;;;9.25;4.97;;;;;;;18.81;53.36;99019.52;1744071;82;21185;-83
2022/04/09 14:34:07;;;;;;;9.03;4.03;;;;;;;18.76;53.86;99019.47;1739855;82;21156;-83
2022/04/09 14:37:13;;;;;;;15.45;5.42;;;;;;;18.70;53.71;99015.53;1749238;82;21180;-83
2022/04/09 14:40:20;;;;;;;8.90;4.83;;;;;;;18.64;53.12;99022.38;1750172;82;21537;-83